createdAt,value
2019-06-20T00:00:47.655Z,8.90
2019-06-20T00:03:16.631Z,9.00
2019-06-20T00:05:45.268Z,12.37
2019-06-20T00:08:13.979Z,10.57
2019-06-20T00:10:43.183Z,11.00
2019-06-20T00:13:11.873Z,10.30
2019-06-20T00:15:40.763Z,9.37
2019-06-20T00:18:09.656Z,11.13
2019-06-20T00:20:38.247Z,8.87
2019-06-20T00:23:06.884Z,10.93
2019-06-20T00:25:35.618Z,9.57
2019-06-20T00:28:04.385Z,12.13
2019-06-20T00:30:32.999Z,10.07
2019-06-20T00:33:01.739Z,9.63
2019-06-20T00:35:30.514Z,12.10
2019-06-20T00:37:59.088Z,9.77
2019-06-20T00:40:27.630Z,9.33
2019-06-20T00:42:56.208Z,13.20
2019-06-20T00:45:25.203Z,10.03
2019-06-20T00:47:54.025Z,12.17
2019-06-20T00:50:22.670Z,12.37
2019-06-20T00:52:51.236Z,11.23
2019-06-20T00:55:19.934Z,13.97
2019-06-20T00:57:48.569Z,16.07
2019-06-20T01:00:17.787Z,14.47
2019-06-20T01:02:46.345Z,11.87
2019-06-20T01:05:15.058Z,13.53
2019-06-20T01:07:43.812Z,11.80
2019-06-20T01:10:12.738Z,10.80
2019-06-20T01:12:41.323Z,9.13
2019-06-20T01:15:10.519Z,11.07
2019-06-20T01:17:39.329Z,9.53
2019-06-20T01:20:09.678Z,12.57
2019-06-20T01:22:38.306Z,12.07
2019-06-20T01:25:09.108Z,11.43
2019-06-20T01:27:38.252Z,10.10
2019-06-20T01:30:08.830Z,9.23
2019-06-20T01:32:37.566Z,10.40
2019-06-20T01:35:08.192Z,9.10
2019-06-20T01:37:37.130Z,9.90
2019-06-20T01:40:06.957Z,10.70
2019-06-20T01:42:35.584Z,8.57
2019-06-20T01:45:06.502Z,13.63
2019-06-20T01:47:35.358Z,11.03
2019-06-20T01:50:05.327Z,12.27
2019-06-20T01:52:33.880Z,12.83
2019-06-20T01:55:02.512Z,8.83
2019-06-20T01:57:31.091Z,10.03
2019-06-20T01:59:59.912Z,8.73
2019-06-20T02:02:28.558Z,10.23
2019-06-20T02:04:57.177Z,11.13
2019-06-20T02:07:28.081Z,10.37
2019-06-20T02:09:56.126Z,11.00
2019-06-20T02:12:24.752Z,12.07
2019-06-20T02:14:53.232Z,11.37
2019-06-20T02:17:21.816Z,10.47
2019-06-20T02:19:53.204Z,11.13
2019-06-20T02:22:21.912Z,13.10
2019-06-20T02:24:50.437Z,10.90
2019-06-20T02:27:19.939Z,9.83
2019-06-20T02:29:48.495Z,12.57
2019-06-20T02:32:17.141Z,12.90
2019-06-20T02:34:45.812Z,13.20
2019-06-20T02:37:14.384Z,13.53
2019-06-20T02:39:42.967Z,11.93
2019-06-20T02:42:11.601Z,12.13
2019-06-20T02:44:40.241Z,11.70
2019-06-20T02:47:08.990Z,10.87
2019-06-20T02:49:37.600Z,13.27
2019-06-20T02:52:06.229Z,11.80
2019-06-20T02:54:34.791Z,12.03
2019-06-20T02:57:03.487Z,12.00
2019-06-20T02:59:31.967Z,14.00
2019-06-20T03:02:00.476Z,12.93
2019-06-20T03:04:28.947Z,12.53
2019-06-20T03:06:57.440Z,13.67
2019-06-20T03:09:25.952Z,11.67
2019-06-20T03:11:54.550Z,11.73
2019-06-20T03:14:23.112Z,11.43
2019-06-20T03:16:51.769Z,11.77
2019-06-20T03:19:20.351Z,9.30
2019-06-20T03:21:49.098Z,10.67
2019-06-20T03:24:17.833Z,11.37
2019-06-20T03:26:46.309Z,11.20
2019-06-20T03:29:14.814Z,10.30
2019-06-20T03:31:43.323Z,9.57
2019-06-20T03:34:11.960Z,11.73
2019-06-20T03:36:40.728Z,10.07
2019-06-20T03:39:15.726Z,8.43
2019-06-20T03:41:44.342Z,10.10
2019-06-20T03:44:12.879Z,11.17
2019-06-20T03:46:41.703Z,11.80
2019-06-20T03:49:10.255Z,12.63
2019-06-20T03:51:38.854Z,10.97
2019-06-20T03:54:07.502Z,12.77
2019-06-20T03:56:36.044Z,12.00
2019-06-20T03:59:04.747Z,11.60
2019-06-20T04:01:33.470Z,10.27
2019-06-20T04:04:02.047Z,10.30
2019-06-20T04:06:30.626Z,13.43
2019-06-20T04:09:18.666Z,12.13
2019-06-20T04:11:47.154Z,9.40
2019-06-20T04:14:15.742Z,11.43
2019-06-20T04:16:44.406Z,10.13
2019-06-20T04:19:12.947Z,9.97
2019-06-20T04:21:41.509Z,12.20
2019-06-20T04:24:10.070Z,8.50
2019-06-20T04:26:38.552Z,9.47
2019-06-20T04:29:07.101Z,8.53
2019-06-20T04:31:35.677Z,9.33
2019-06-20T04:34:04.387Z,7.23
2019-06-20T04:36:32.997Z,7.33
2019-06-20T04:39:01.708Z,7.80
2019-06-20T04:41:30.429Z,7.57
2019-06-20T04:43:58.907Z,8.80
2019-06-20T04:46:29.040Z,6.60
2019-06-20T04:48:57.576Z,8.43
2019-06-20T04:51:26.147Z,6.70
2019-06-20T04:53:54.736Z,8.53
2019-06-20T04:56:23.361Z,6.37
2019-06-20T04:58:51.938Z,8.40
2019-06-20T05:01:20.623Z,6.27
2019-06-20T05:03:49.320Z,6.37
2019-06-20T05:06:18.018Z,7.17
2019-06-20T05:08:46.662Z,4.83
2019-06-20T05:11:15.271Z,8.37
2019-06-20T05:13:43.836Z,6.67
2019-06-20T05:16:12.405Z,5.20
2019-06-20T05:18:40.941Z,5.43
2019-06-20T05:21:09.495Z,6.67
2019-06-20T05:23:38.292Z,5.57
2019-06-20T05:26:07.162Z,4.60
2019-06-20T05:28:35.697Z,3.87
2019-06-20T05:31:04.365Z,7.40
2019-06-20T05:33:33.028Z,7.50
2019-06-20T05:36:01.640Z,8.67
2019-06-20T05:38:30.138Z,6.77
2019-06-20T05:40:58.721Z,5.47
2019-06-20T05:43:32.756Z,5.53
2019-06-20T05:46:09.330Z,4.70
2019-06-20T05:48:31.661Z,4.97
2019-06-20T05:51:00.268Z,4.77
2019-06-20T05:53:28.955Z,6.97
2019-06-20T05:55:57.563Z,7.73
2019-06-20T05:58:26.095Z,4.50
2019-06-20T06:00:54.659Z,5.97
2019-06-20T06:03:23.186Z,4.20
2019-06-20T06:05:51.857Z,5.37
2019-06-20T06:08:20.502Z,5.07
2019-06-20T06:10:49.177Z,5.50
2019-06-20T06:13:17.915Z,6.03
2019-06-20T06:15:46.549Z,5.27
2019-06-20T06:18:15.108Z,5.73
2019-06-20T06:20:45.005Z,4.13
2019-06-20T06:23:14.023Z,8.33
2019-06-20T06:25:42.842Z,5.37
2019-06-20T06:28:12.453Z,6.23
2019-06-20T06:30:41.445Z,4.70
2019-06-20T06:33:10.064Z,6.53
2019-06-20T06:35:38.603Z,6.70
2019-06-20T06:38:07.165Z,5.20
2019-06-20T06:40:35.803Z,7.10
2019-06-20T06:43:04.634Z,5.73
2019-06-20T06:45:33.259Z,4.90
2019-06-20T06:48:01.973Z,4.70
2019-06-20T06:50:30.586Z,6.00
2019-06-20T06:52:59.210Z,3.57
2019-06-20T06:55:28.066Z,4.53
2019-06-20T06:57:56.760Z,4.77
2019-06-20T07:00:25.467Z,5.40
2019-06-20T07:02:54.680Z,6.23
2019-06-20T07:05:23.511Z,5.27
2019-06-20T07:07:52.008Z,4.37
2019-06-20T07:10:21.356Z,4.90
2019-06-20T07:12:51.121Z,7.17
2019-06-20T07:15:20.417Z,4.83
2019-06-20T07:17:49.057Z,4.97
2019-06-20T07:20:17.928Z,4.57
2019-06-20T07:22:46.674Z,4.87
2019-06-20T07:25:15.484Z,2.97
2019-06-20T07:27:44.135Z,3.70
2019-06-20T07:30:13.718Z,3.40
2019-06-20T07:32:42.280Z,4.70
2019-06-20T07:35:11.482Z,4.77
2019-06-20T07:37:40.038Z,5.20
2019-06-20T07:40:10.440Z,3.07
2019-06-20T07:42:39.124Z,4.47
2019-06-20T07:45:09.433Z,3.33
2019-06-20T07:47:38.436Z,4.00
2019-06-20T07:50:08.563Z,4.70
2019-06-20T07:52:37.265Z,4.17
2019-06-20T07:55:09.394Z,3.43
2019-06-20T07:57:38.304Z,6.70
2019-06-20T08:00:09.932Z,3.57
2019-06-20T08:02:38.709Z,3.57
2019-06-20T08:05:26.755Z,5.50
2019-06-20T08:07:55.303Z,4.80
2019-06-20T08:10:24.116Z,3.93
2019-06-20T08:12:52.883Z,3.27
2019-06-20T08:15:22.252Z,3.90
2019-06-20T08:17:50.973Z,4.57
2019-06-20T08:20:20.115Z,2.43
2019-06-20T08:22:48.724Z,1.67
2019-06-20T08:25:17.759Z,2.37
2019-06-20T08:27:50.000Z,2.63
2019-06-20T08:30:39.391Z,3.47
2019-06-20T08:33:11.861Z,3.03
2019-06-20T08:35:39.508Z,5.27
2019-06-20T08:38:08.081Z,3.33
2019-06-20T08:40:43.042Z,1.90
2019-06-20T08:43:11.688Z,2.27
2019-06-20T08:45:42.452Z,3.77
2019-06-20T08:48:12.099Z,4.13
2019-06-20T08:50:41.918Z,2.80
2019-06-20T08:53:10.634Z,2.20
2019-06-20T08:55:39.242Z,2.77
2019-06-20T08:58:08.063Z,2.13
2019-06-20T09:00:37.744Z,2.47
2019-06-20T09:03:06.697Z,3.00
2019-06-20T09:05:35.761Z,4.37
2019-06-20T09:08:05.932Z,3.27
2019-06-20T09:10:41.949Z,4.57
2019-06-20T09:13:12.246Z,3.50
2019-06-20T09:15:41.374Z,3.17
2019-06-20T09:18:10.221Z,3.00
2019-06-20T09:20:39.112Z,2.67
2019-06-20T09:23:07.903Z,5.43
2019-06-20T09:25:36.815Z,1.70
2019-06-20T09:28:06.544Z,1.67
2019-06-20T09:30:36.898Z,2.27
2019-06-20T09:33:05.764Z,3.87
2019-06-20T09:35:53.924Z,3.37
2019-06-20T09:38:36.755Z,1.50
2019-06-20T09:41:05.488Z,2.20
2019-06-20T09:43:34.118Z,3.00
2019-06-20T09:46:03.280Z,3.13
2019-06-20T09:48:31.859Z,2.53
2019-06-20T09:51:00.424Z,3.97
2019-06-20T09:53:29.060Z,1.63
2019-06-20T09:55:57.829Z,4.63
2019-06-20T09:58:26.533Z,2.57
2019-06-20T10:00:55.191Z,2.83
2019-06-20T10:03:23.863Z,2.23
2019-06-20T10:05:52.567Z,2.80
2019-06-20T10:08:21.281Z,4.40
2019-06-20T10:10:50.717Z,4.63
2019-06-20T10:13:20.302Z,2.47
2019-06-20T10:15:49.457Z,3.90
2019-06-20T10:18:18.082Z,3.70
2019-06-20T10:20:47.243Z,5.33
2019-06-20T10:23:15.932Z,5.57
2019-06-20T10:25:46.105Z,1.30
2019-06-20T10:28:14.894Z,2.70
2019-06-20T10:30:44.696Z,2.80
2019-06-20T10:33:13.532Z,1.97
2019-06-20T10:35:42.086Z,1.73
2019-06-20T10:38:10.650Z,2.67
2019-06-20T10:40:39.355Z,2.27
2019-06-20T10:43:08.023Z,1.83
2019-06-20T10:45:37.268Z,4.83
2019-06-20T10:48:06.289Z,2.37
2019-06-20T10:50:35.013Z,3.63
2019-06-20T10:53:03.825Z,2.37
2019-06-20T10:55:32.516Z,1.97
2019-06-20T10:58:01.377Z,2.80
2019-06-20T11:00:50.393Z,1.90
2019-06-20T11:03:19.101Z,3.30
2019-06-20T11:05:48.182Z,1.67
2019-06-20T11:08:16.947Z,1.73
2019-06-20T11:10:45.687Z,3.90
2019-06-20T11:13:14.366Z,2.07
2019-06-20T11:15:44.068Z,7.27
2019-06-20T11:18:12.722Z,6.13
2019-06-20T11:20:42.759Z,3.53
2019-06-20T11:23:11.504Z,5.60
2019-06-20T11:25:41.625Z,8.63
2019-06-20T11:28:10.531Z,3.60
2019-06-20T11:30:52.992Z,3.00
2019-06-20T11:33:09.873Z,4.13
2019-06-20T11:35:39.285Z,2.70
2019-06-20T11:38:08.130Z,2.00
2019-06-20T11:40:38.098Z,2.37
2019-06-20T11:43:07.312Z,3.33
2019-06-20T11:45:37.269Z,2.67
2019-06-20T11:48:06.352Z,1.87
2019-06-20T11:50:36.152Z,1.83
2019-06-20T11:53:05.204Z,2.53
2019-06-20T11:55:33.785Z,2.73
2019-06-20T11:58:02.325Z,3.77
2019-06-20T12:00:31.177Z,3.43
2019-06-20T12:02:59.793Z,9.80
2019-06-20T12:05:28.471Z,4.13
2019-06-20T12:08:17.860Z,2.03
2019-06-20T12:10:47.329Z,3.83
2019-06-20T12:13:16.063Z,3.53
2019-06-20T12:15:44.689Z,2.63
2019-06-20T12:18:13.255Z,8.00
2019-06-20T12:20:42.863Z,3.67
2019-06-20T12:23:18.923Z,4.00
2019-06-20T12:25:48.763Z,1.57
2019-06-20T12:28:17.436Z,3.87
2019-06-20T12:30:46.018Z,3.53
2019-06-20T12:33:14.573Z,3.03
2019-06-20T12:35:44.430Z,4.37
2019-06-20T12:38:15.122Z,5.60
2019-06-20T12:40:44.080Z,4.53
2019-06-20T12:43:12.828Z,2.63
2019-06-20T12:45:42.800Z,3.20
2019-06-20T12:48:11.544Z,3.07
2019-06-20T12:50:41.363Z,3.50
2019-06-20T12:53:10.368Z,2.27
2019-06-20T12:55:40.266Z,3.30
2019-06-20T12:58:08.957Z,4.50
2019-06-20T13:00:39.584Z,2.47
2019-06-20T13:03:08.188Z,2.77
2019-06-20T13:05:36.820Z,4.70
2019-06-20T13:08:05.565Z,3.07
2019-06-20T13:10:34.214Z,1.60
2019-06-20T13:13:03.055Z,5.23
2019-06-20T13:15:31.710Z,2.90
2019-06-20T13:18:00.310Z,3.67
2019-06-20T13:20:28.955Z,4.13
2019-06-20T13:22:57.814Z,1.93
2019-06-20T13:25:26.430Z,2.17
2019-06-20T13:27:55.047Z,7.43
2019-06-20T13:30:23.895Z,2.53
2019-06-20T13:32:52.537Z,2.53
2019-06-20T13:35:21.451Z,3.03
2019-06-20T13:37:50.376Z,4.70
2019-06-20T13:40:19.409Z,3.00
2019-06-20T13:42:48.163Z,2.20
2019-06-20T13:45:23.932Z,2.67
2019-06-20T13:47:52.895Z,3.07
2019-06-20T13:50:24.641Z,3.37
2019-06-20T13:52:53.391Z,3.57
2019-06-20T13:55:22.107Z,3.13
2019-06-20T13:57:51.195Z,5.67
2019-06-20T14:00:22.568Z,2.47
2019-06-20T14:02:51.672Z,2.37
2019-06-20T14:05:20.882Z,2.60
2019-06-20T14:07:53.312Z,2.30
2019-06-20T14:10:20.569Z,2.87
2019-06-20T14:12:49.445Z,1.60
2019-06-20T14:15:18.550Z,3.47
2019-06-20T14:17:47.591Z,5.53
2019-06-20T14:20:17.077Z,2.87
2019-06-20T14:22:45.663Z,1.77
2019-06-20T14:25:14.527Z,2.47
2019-06-20T14:27:43.987Z,2.90
2019-06-20T14:30:13.537Z,2.93
2019-06-20T14:32:43.279Z,2.70
2019-06-20T14:35:12.736Z,4.57
2019-06-20T14:37:43.421Z,5.83
2019-06-20T14:40:12.612Z,3.40
2019-06-20T14:42:41.260Z,4.00
2019-06-20T14:45:10.691Z,3.57
2019-06-20T14:47:39.394Z,5.80
2019-06-20T14:50:09.408Z,4.63
2019-06-20T14:52:38.208Z,3.17
2019-06-20T14:55:08.710Z,2.77
2019-06-20T14:57:37.432Z,3.30
2019-06-20T15:00:08.685Z,2.97
2019-06-20T15:02:38.694Z,3.17
2019-06-20T15:05:13.699Z,2.93
2019-06-20T15:07:42.418Z,7.03
2019-06-20T15:10:11.326Z,3.33
2019-06-20T15:12:39.899Z,2.60
2019-06-20T15:15:09.349Z,2.03
2019-06-20T15:17:38.064Z,2.90
2019-06-20T15:20:09.170Z,3.50
2019-06-20T15:22:37.908Z,1.77
2019-06-20T15:25:07.217Z,2.10
2019-06-20T15:27:35.943Z,2.83
2019-06-20T15:30:06.913Z,1.10
2019-06-20T15:32:35.620Z,1.47
2019-06-20T15:35:06.826Z,1.57
2019-06-20T15:37:35.495Z,0.97
2019-06-20T15:40:05.999Z,2.30
2019-06-20T15:42:34.679Z,3.07
2019-06-20T15:45:04.583Z,2.83
2019-06-20T15:47:33.247Z,2.67
2019-06-20T15:50:01.871Z,2.60
2019-06-20T15:52:30.476Z,1.40
2019-06-20T15:54:59.112Z,3.53
2019-06-20T15:57:27.773Z,2.50
2019-06-20T15:59:56.322Z,2.20
2019-06-20T16:02:25.032Z,2.83
2019-06-20T16:04:53.792Z,1.70
2019-06-20T16:07:22.384Z,3.20
2019-06-20T16:09:51.017Z,1.93
2019-06-20T16:12:19.676Z,3.40
2019-06-20T16:14:48.430Z,3.07
2019-06-20T16:17:17.079Z,4.43
2019-06-20T16:19:45.816Z,5.67
2019-06-20T16:22:14.431Z,5.67
2019-06-20T16:24:42.983Z,1.60
2019-06-20T16:27:11.648Z,4.47
2019-06-20T16:29:40.302Z,3.03
2019-06-20T16:32:09.120Z,1.97
2019-06-20T16:34:37.829Z,1.70
2019-06-20T16:37:10.019Z,3.97
2019-06-20T16:39:36.727Z,3.20
2019-06-20T16:42:05.362Z,2.77
2019-06-20T16:44:33.898Z,3.53
2019-06-20T16:47:02.515Z,3.43
2019-06-20T16:49:31.098Z,2.77
2019-06-20T16:51:59.671Z,3.10
2019-06-20T16:54:28.254Z,4.00
2019-06-20T16:56:56.845Z,5.27
2019-06-20T16:59:25.494Z,2.60
2019-06-20T17:01:54.083Z,2.50
2019-06-20T17:04:22.796Z,3.33
2019-06-20T17:06:51.344Z,2.53
2019-06-20T17:09:19.900Z,4.77
2019-06-20T17:11:48.610Z,4.57
2019-06-20T17:14:17.175Z,5.13
2019-06-20T17:16:45.824Z,2.93
2019-06-20T17:19:14.518Z,3.43
2019-06-20T17:21:43.158Z,2.90
2019-06-20T17:24:11.820Z,4.73
2019-06-20T17:26:40.614Z,3.80
2019-06-20T17:29:09.258Z,7.73
2019-06-20T17:31:38.000Z,5.80
2019-06-20T17:34:06.640Z,3.20
2019-06-20T17:36:35.327Z,3.17
2019-06-20T17:39:05.500Z,2.90
2019-06-20T17:41:34.091Z,3.50
2019-06-20T17:44:02.721Z,2.97
2019-06-20T17:46:31.342Z,3.60
2019-06-20T17:48:59.993Z,2.93
2019-06-20T17:51:28.660Z,2.27
2019-06-20T17:53:57.311Z,3.03
2019-06-20T17:56:25.930Z,6.07
2019-06-20T17:58:54.479Z,1.97
2019-06-20T18:01:23.044Z,5.03
2019-06-20T18:03:51.614Z,3.53
2019-06-20T18:06:20.300Z,4.73
2019-06-20T18:08:48.998Z,5.60
2019-06-20T18:11:17.682Z,2.60
2019-06-20T18:13:46.237Z,4.97
2019-06-20T18:16:24.451Z,3.27
2019-06-20T18:18:45.174Z,3.13
2019-06-20T18:21:13.767Z,6.63
2019-06-20T18:23:42.410Z,7.23
2019-06-20T18:26:11.009Z,4.43
2019-06-20T18:28:39.550Z,5.70
2019-06-20T18:31:08.048Z,6.00
2019-06-20T18:33:36.607Z,4.73
2019-06-20T18:36:05.320Z,6.50
2019-06-20T18:38:33.989Z,5.07
2019-06-20T18:41:02.567Z,5.23
2019-06-20T18:43:31.306Z,3.03
2019-06-20T18:45:59.865Z,3.23
2019-06-20T18:48:28.472Z,2.17
2019-06-20T18:50:57.284Z,5.17
2019-06-20T18:53:26.011Z,9.57
2019-06-20T18:55:54.727Z,9.23
2019-06-20T18:58:23.302Z,5.20
2019-06-20T19:00:51.857Z,4.67
2019-06-20T19:03:21.422Z,5.07
2019-06-20T19:05:50.236Z,6.73
2019-06-20T19:08:18.941Z,6.07
2019-06-20T19:10:47.657Z,5.00
2019-06-20T19:13:16.347Z,3.80
2019-06-20T19:15:45.200Z,3.33
2019-06-20T19:18:15.980Z,5.80
2019-06-20T19:20:44.643Z,7.83
2019-06-20T19:23:13.636Z,8.10
2019-06-20T19:25:42.376Z,5.83
2019-06-20T19:28:11.015Z,6.43
2019-06-20T19:30:51.282Z,5.23
2019-06-20T19:33:27.322Z,4.27
2019-06-20T19:35:55.880Z,8.93
2019-06-20T19:38:24.420Z,5.30
2019-06-20T19:40:53.211Z,5.20
2019-06-20T19:43:22.144Z,5.27
2019-06-20T19:45:50.955Z,4.53
2019-06-20T19:48:19.639Z,5.90
2019-06-20T19:50:48.312Z,5.57
2019-06-20T19:53:17.159Z,5.10
2019-06-20T19:55:45.889Z,6.67
2019-06-20T19:58:14.521Z,5.80
2019-06-20T20:00:43.321Z,5.13
2019-06-20T20:03:12.145Z,4.20
2019-06-20T20:05:40.971Z,3.33
2019-06-20T20:08:09.840Z,4.27
2019-06-20T20:10:43.907Z,2.40
2019-06-20T20:13:15.357Z,2.77
2019-06-20T20:15:43.681Z,3.43
2019-06-20T20:18:12.739Z,4.37
2019-06-20T20:20:41.482Z,2.80
2019-06-20T20:23:10.040Z,1.70
2019-06-20T20:25:38.602Z,2.73
2019-06-20T20:28:07.386Z,2.57
2019-06-20T20:30:36.076Z,5.97
2019-06-20T20:33:05.079Z,3.70
2019-06-20T20:35:35.878Z,3.63
2019-06-20T20:38:04.244Z,7.43
2019-06-20T20:40:32.985Z,4.67
2019-06-20T20:43:01.673Z,3.90
2019-06-20T20:45:30.614Z,4.03
2019-06-20T20:47:59.343Z,2.70
2019-06-20T20:50:28.011Z,3.33
2019-06-20T20:52:56.814Z,3.90
2019-06-20T20:55:25.422Z,2.80
2019-06-20T20:57:53.998Z,3.47
2019-06-20T21:00:40.511Z,4.10
2019-06-20T21:03:09.229Z,4.83
2019-06-20T21:05:50.710Z,5.50
2019-06-20T21:08:08.205Z,3.27
2019-06-20T21:10:37.017Z,5.63
2019-06-20T21:13:05.635Z,3.23
2019-06-20T21:15:34.263Z,5.07
2019-06-20T21:18:02.945Z,3.40
2019-06-20T21:20:31.634Z,4.00
2019-06-20T21:23:00.299Z,3.67
2019-06-20T21:25:32.072Z,7.37
2019-06-20T21:27:59.442Z,3.87
2019-06-20T21:30:47.584Z,4.90
2019-06-20T21:33:16.385Z,4.57
2019-06-20T21:35:45.102Z,3.47
2019-06-20T21:38:13.665Z,4.57
2019-06-20T21:40:42.294Z,4.70
2019-06-20T21:43:11.054Z,5.20
2019-06-20T21:45:39.642Z,5.87
2019-06-20T21:48:08.339Z,4.83
2019-06-20T21:50:36.938Z,4.77
2019-06-20T21:53:05.626Z,2.63
2019-06-20T21:55:34.199Z,4.80
2019-06-20T21:58:03.011Z,5.23
2019-06-20T22:00:39.133Z,3.13
2019-06-20T22:03:09.095Z,5.60
2019-06-20T22:05:38.140Z,3.90
2019-06-20T22:08:09.573Z,2.80
2019-06-20T22:10:38.381Z,3.90
2019-06-20T22:13:07.179Z,2.63
2019-06-20T22:15:35.966Z,4.67
2019-06-20T22:18:04.780Z,3.53
2019-06-20T22:20:33.725Z,4.73
2019-06-20T22:23:02.334Z,4.50
2019-06-20T22:25:30.996Z,2.87
2019-06-20T22:27:59.726Z,2.80
2019-06-20T22:30:43.544Z,4.07
2019-06-20T22:33:12.193Z,6.17
2019-06-20T22:35:41.013Z,4.97
2019-06-20T22:38:09.753Z,5.87
2019-06-20T22:40:38.279Z,7.63
2019-06-20T22:43:07.039Z,3.17
2019-06-20T22:45:35.761Z,6.30
2019-06-20T22:48:05.030Z,4.77
2019-06-20T22:50:33.693Z,4.07
2019-06-20T22:53:02.577Z,2.67
2019-06-20T22:55:31.280Z,5.10
2019-06-20T22:57:59.820Z,2.30
2019-06-20T23:00:28.748Z,5.03
2019-06-20T23:02:58.914Z,3.53
2019-06-20T23:05:27.679Z,4.67
2019-06-20T23:07:56.439Z,3.73
2019-06-20T23:10:25.455Z,2.70
2019-06-20T23:12:54.075Z,2.10
2019-06-20T23:15:23.402Z,2.83
2019-06-20T23:17:52.151Z,2.87
2019-06-20T23:20:20.703Z,5.97
2019-06-20T23:22:49.282Z,3.13
2019-06-20T23:25:18.754Z,4.63
2019-06-20T23:27:47.328Z,4.37
2019-06-20T23:30:18.791Z,5.30
2019-06-20T23:32:47.547Z,4.10
2019-06-20T23:35:16.276Z,4.77
2019-06-20T23:37:44.898Z,4.67
2019-06-20T23:40:13.739Z,2.53
2019-06-20T23:42:42.499Z,4.23
2019-06-20T23:45:11.444Z,3.23
2019-06-20T23:47:40.064Z,5.57
2019-06-20T23:50:18.561Z,11.27
2019-06-20T23:52:53.568Z,3.27
2019-06-20T23:55:22.159Z,4.80
2019-06-20T23:57:50.723Z,3.97
